This is the latest recevied weather packets stored in our database for station/object AA5AW. If no packets are shown the sender has not sent any weather packets the latest 10 day(s).
| Time | Temp. | Humidity | Pressure | Rain* | Wind** | Luminosity | Snow |
|---|---|---|---|---|---|---|---|
| 1777854649 | 21.11° C | 62% | 1018.3 hPa | 0 mm | - | 18 W/m² | - |
| 1777851955 | 24.44° C | 45% | 1018.5 hPa | 0 mm | - | 163 W/m² | - |
| 1777850138 | 25.56° C | 41% | 1018.5 hPa | 0 mm | - | 221 W/m² | - |
| 1777847436 | 26.11° C | 41% | 1018.8 hPa | 0 mm | - | 439 W/m² | - |
| 1777816817 | 16.11° C | 93% | 1023.9 hPa | 0 mm | - | 299 W/m² | - |
| 1777814140 | 12.22° C | 97% | 1023.6 hPa | 0 mm | - | 214 W/m² | - |
| 1777813232 | 11.11° C | 97% | 1023.6 hPa | 0 mm | - | 167 W/m² | - |
| 1777809632 | 7.78° C | 97% | 1023.2 hPa | 0 mm | - | 19 W/m² | - |
| 1777806908 | 8.33° C | 97% | 1022.8 hPa | 0 mm | - | 0 W/m² | - |
| 1777799752 | 8.89° C | 96% | 1021.9 hPa | 0 mm | - | 0 W/m² | - |
| 1777794320 | 9.44° C | 96% | 1022 hPa | 0 mm | - | 0 W/m² | - |
| 1777780814 | 11.67° C | 93% | 1021.7 hPa | 0 mm | - | 0 W/m² | - |
| 1777779957 | 12.22° C | 93% | 1021.8 hPa | 0 mm | - | 0 W/m² | - |
| 1777776348 | 12.78° C | 90% | 1021.3 hPa | 0 mm | - | 0 W/m² | - |
| 1777775438 | 13.33° C | 89% | 1021.2 hPa | 0 mm | - | 0 W/m² | - |
| 1777772754 | 15° C | 85% | 1020.7 hPa | 0 mm | - | 0 W/m² | - |
| 1777770946 | 16.11° C | 81% | 1020.5 hPa | 0 mm | - | 0 W/m² | - |
| 1777765540 | 22.22° C | 48% | 1019.7 hPa | 0 mm | - | 37 W/m² | - |
| 1777764642 | 22.78° C | 44% | 1019.7 hPa | 0 mm | - | 213 W/m² | - |
| 1777756507 | 23.33° C | 49% | 1019.8 hPa | 0 mm | - | 636 W/m² | - |
| 1777754745 | 23.33° C | 44% | 1020 hPa | 0 mm | - | 707 W/m² | - |
| 1777751127 | 22.78° C | 48% | 1020.8 hPa | 0 mm | - | 782 W/m² | - |
| 1777742142 | 20.56° C | 54% | 1022.5 hPa | 0 mm | - | 795 W/m² | - |
| 1777741254 | 20.56° C | 59% | 1022.6 hPa | 0 mm | - | 782 W/m² | - |
| 1777738549 | 20° C | 60% | 1022.7 hPa | 0 mm | - | 715 W/m² | - |
* Rain latest hour (hover to see other rain measurements)
** Current wind speed in m/s (hover to see current wind gust speed)